sensor_id;sensor_type;location;lat;lon;timestamp;P1;durP1;ratioP1;P2;durP2;ratioP2
23328;SDS011;11836;51.050;3.716;2023-03-21T00:01:10;1.63;;;0.95;;
23328;SDS011;11836;51.050;3.716;2023-03-21T00:03:45;2.47;;;1.40;;
23328;SDS011;11836;51.050;3.716;2023-03-21T00:06:15;2.15;;;1.40;;
23328;SDS011;11836;51.050;3.716;2023-03-21T00:08:41;2.03;;;1.15;;
23328;SDS011;11836;51.050;3.716;2023-03-21T00:11:09;2.22;;;1.42;;
23328;SDS011;11836;51.050;3.716;2023-03-21T00:13:38;1.60;;;1.23;;
23328;SDS011;11836;51.050;3.716;2023-03-21T00:16:13;1.30;;;0.88;;
23328;SDS011;11836;51.050;3.716;2023-03-21T00:18:43;2.15;;;1.30;;
23328;SDS011;11836;51.050;3.716;2023-03-21T00:21:17;2.88;;;1.13;;
23328;SDS011;11836;51.050;3.716;2023-03-21T00:23:44;2.15;;;1.15;;
23328;SDS011;11836;51.050;3.716;2023-03-21T00:26:11;2.30;;;1.42;;
23328;SDS011;11836;51.050;3.716;2023-03-21T00:28:43;1.23;;;1.08;;
23328;SDS011;11836;51.050;3.716;2023-03-21T00:31:10;1.30;;;1.13;;
23328;SDS011;11836;51.050;3.716;2023-03-21T00:33:36;2.72;;;1.30;;
23328;SDS011;11836;51.050;3.716;2023-03-21T00:36:04;2.15;;;1.52;;
23328;SDS011;11836;51.050;3.716;2023-03-21T00:38:36;1.88;;;1.27;;
23328;SDS011;11836;51.050;3.716;2023-03-21T00:41:03;1.73;;;1.40;;
23328;SDS011;11836;51.050;3.716;2023-03-21T00:43:30;2.30;;;1.30;;
23328;SDS011;11836;51.050;3.716;2023-03-21T00:45:57;2.00;;;1.60;;
23328;SDS011;11836;51.050;3.716;2023-03-21T00:48:30;1.95;;;1.20;;
23328;SDS011;11836;51.050;3.716;2023-03-21T00:51:14;1.40;;;1.10;;
23328;SDS011;11836;51.050;3.716;2023-03-21T00:53:56;2.10;;;1.38;;
23328;SDS011;11836;51.050;3.716;2023-03-21T00:56:22;1.48;;;1.08;;
23328;SDS011;11836;51.050;3.716;2023-03-21T00:58:48;1.30;;;1.00;;
23328;SDS011;11836;51.050;3.716;2023-03-21T01:01:15;1.70;;;1.17;;
23328;SDS011;11836;51.050;3.716;2023-03-21T01:03:42;2.10;;;1.35;;
23328;SDS011;11836;51.050;3.716;2023-03-21T01:06:27;2.03;;;1.40;;
23328;SDS011;11836;51.050;3.716;2023-03-21T01:08:53;2.17;;;1.15;;
23328;SDS011;11836;51.050;3.716;2023-03-21T01:11:20;2.55;;;1.63;;
23328;SDS011;11836;51.050;3.716;2023-03-21T01:13:55;2.40;;;1.60;;
23328;SDS011;11836;51.050;3.716;2023-03-21T01:16:21;1.48;;;1.20;;
23328;SDS011;11836;51.050;3.716;2023-03-21T01:18:48;1.83;;;1.10;;
23328;SDS011;11836;51.050;3.716;2023-03-21T01:21:20;1.60;;;1.10;;
23328;SDS011;11836;51.050;3.716;2023-03-21T01:23:46;3.38;;;1.58;;
23328;SDS011;11836;51.050;3.716;2023-03-21T01:26:15;2.20;;;1.70;;
23328;SDS011;11836;51.050;3.716;2023-03-21T01:28:43;2.20;;;1.10;;
23328;SDS011;11836;51.050;3.716;2023-03-21T01:31:14;1.52;;;1.30;;
23328;SDS011;11836;51.050;3.716;2023-03-21T01:33:43;2.50;;;1.58;;
23328;SDS011;11836;51.050;3.716;2023-03-21T01:36:14;1.55;;;1.35;;
23328;SDS011;11836;51.050;3.716;2023-03-21T01:38:42;1.77;;;1.42;;
23328;SDS011;11836;51.050;3.716;2023-03-21T01:41:13;2.83;;;1.50;;
23328;SDS011;11836;51.050;3.716;2023-03-21T01:43:48;3.72;;;1.50;;
23328;SDS011;11836;51.050;3.716;2023-03-21T01:46:28;2.63;;;1.33;;
23328;SDS011;11836;51.050;3.716;2023-03-21T01:49:35;2.05;;;1.17;;
23328;SDS011;11836;51.050;3.716;2023-03-21T01:52:06;3.58;;;1.60;;
23328;SDS011;11836;51.050;3.716;2023-03-21T01:54:35;2.33;;;1.30;;
23328;SDS011;11836;51.050;3.716;2023-03-21T01:57:11;2.13;;;1.30;;
23328;SDS011;11836;51.050;3.716;2023-03-21T01:59:43;2.88;;;1.52;;
23328;SDS011;11836;51.050;3.716;2023-03-21T02:02:23;2.28;;;1.50;;
23328;SDS011;11836;51.050;3.716;2023-03-21T02:04:53;2.72;;;1.30;;
23328;SDS011;11836;51.050;3.716;2023-03-21T02:10:16;2.72;;;1.50;;
23328;SDS011;11836;51.050;3.716;2023-03-21T02:12:43;3.03;;;1.40;;
23328;SDS011;11836;51.050;3.716;2023-03-21T02:15:10;2.97;;;1.45;;
23328;SDS011;11836;51.050;3.716;2023-03-21T02:29:06;2.70;;;1.23;;
23328;SDS011;11836;51.050;3.716;2023-03-21T02:38:14;2.65;;;1.50;;
23328;SDS011;11836;51.050;3.716;2023-03-21T02:43:38;2.13;;;1.17;;
23328;SDS011;11836;51.050;3.716;2023-03-21T02:51:37;1.90;;;1.45;;
23328;SDS011;11836;51.050;3.716;2023-03-21T02:54:07;2.50;;;1.38;;
23328;SDS011;11836;51.050;3.716;2023-03-21T02:56:37;2.30;;;1.30;;
23328;SDS011;11836;51.050;3.716;2023-03-21T02:59:04;2.40;;;1.30;;
23328;SDS011;11836;51.050;3.716;2023-03-21T03:01:30;2.28;;;1.30;;
23328;SDS011;11836;51.050;3.716;2023-03-21T03:04:00;2.17;;;1.23;;
23328;SDS011;11836;51.050;3.716;2023-03-21T03:06:31;2.75;;;1.40;;
23328;SDS011;11836;51.050;3.716;2023-03-21T03:09:54;1.63;;;1.20;;
23328;SDS011;11836;51.050;3.716;2023-03-21T03:12:58;1.77;;;1.15;;
23328;SDS011;11836;51.050;3.716;2023-03-21T03:26:24;1.67;;;1.10;;
23328;SDS011;11836;51.050;3.716;2023-03-21T03:28:54;2.55;;;1.60;;
23328;SDS011;11836;51.050;3.716;2023-03-21T03:31:32;1.60;;;1.10;;
23328;SDS011;11836;51.050;3.716;2023-03-21T03:34:08;3.10;;;1.65;;
23328;SDS011;11836;51.050;3.716;2023-03-21T03:36:41;2.03;;;1.10;;
23328;SDS011;11836;51.050;3.716;2023-03-21T03:39:24;3.13;;;1.17;;
23328;SDS011;11836;51.050;3.716;2023-03-21T03:42:09;2.50;;;1.33;;
23328;SDS011;11836;51.050;3.716;2023-03-21T03:45:04;1.45;;;1.13;;
23328;SDS011;11836;51.050;3.716;2023-03-21T03:52:51;2.05;;;1.63;;
23328;SDS011;11836;51.050;3.716;2023-03-21T03:55:24;1.33;;;1.02;;
23328;SDS011;11836;51.050;3.716;2023-03-21T03:57:58;2.55;;;1.40;;
23328;SDS011;11836;51.050;3.716;2023-03-21T04:00:32;2.25;;;1.10;;
23328;SDS011;11836;51.050;3.716;2023-03-21T04:03:04;1.95;;;1.38;;
23328;SDS011;11836;51.050;3.716;2023-03-21T04:09:57;2.00;;;1.42;;
23328;SDS011;11836;51.050;3.716;2023-03-21T04:15:45;4.07;;;1.30;;
23328;SDS011;11836;51.050;3.716;2023-03-21T04:18:28;1.75;;;1.23;;
23328;SDS011;11836;51.050;3.716;2023-03-21T04:24:20;2.15;;;1.48;;
23328;SDS011;11836;51.050;3.716;2023-03-21T04:26:46;2.53;;;1.33;;
23328;SDS011;11836;51.050;3.716;2023-03-21T04:29:12;1.58;;;1.38;;
23328;SDS011;11836;51.050;3.716;2023-03-21T04:31:44;2.25;;;1.20;;
23328;SDS011;11836;51.050;3.716;2023-03-21T04:34:10;2.08;;;1.30;;
23328;SDS011;11836;51.050;3.716;2023-03-21T04:36:36;2.22;;;1.33;;
23328;SDS011;11836;51.050;3.716;2023-03-21T04:39:08;3.80;;;1.50;;
23328;SDS011;11836;51.050;3.716;2023-03-21T04:41:40;1.27;;;1.17;;
23328;SDS011;11836;51.050;3.716;2023-03-21T04:44:08;2.00;;;1.02;;
23328;SDS011;11836;51.050;3.716;2023-03-21T04:46:38;1.92;;;1.33;;
23328;SDS011;11836;51.050;3.716;2023-03-21T04:49:05;2.07;;;1.37;;
23328;SDS011;11836;51.050;3.716;2023-03-21T04:51:34;1.67;;;1.20;;
23328;SDS011;11836;51.050;3.716;2023-03-21T04:54:00;2.97;;;1.30;;
23328;SDS011;11836;51.050;3.716;2023-03-21T04:56:26;2.75;;;1.30;;
23328;SDS011;11836;51.050;3.716;2023-03-21T04:59:13;3.92;;;1.65;;
23328;SDS011;11836;51.050;3.716;2023-03-21T05:01:43;2.42;;;1.40;;
23328;SDS011;11836;51.050;3.716;2023-03-21T05:04:14;2.78;;;1.55;;
23328;SDS011;11836;51.050;3.716;2023-03-21T05:06:40;2.50;;;1.50;;
23328;SDS011;11836;51.050;3.716;2023-03-21T05:09:09;1.52;;;1.33;;
23328;SDS011;11836;51.050;3.716;2023-03-21T05:11:50;1.73;;;1.20;;
23328;SDS011;11836;51.050;3.716;2023-03-21T05:14:32;2.13;;;1.42;;
23328;SDS011;11836;51.050;3.716;2023-03-21T05:16:59;1.52;;;1.30;;
23328;SDS011;11836;51.050;3.716;2023-03-21T05:19:29;2.83;;;1.40;;
23328;SDS011;11836;51.050;3.716;2023-03-21T05:22:05;2.75;;;1.45;;
23328;SDS011;11836;51.050;3.716;2023-03-21T05:24:43;3.25;;;1.75;;
23328;SDS011;11836;51.050;3.716;2023-03-21T05:27:14;2.85;;;1.58;;
23328;SDS011;11836;51.050;3.716;2023-03-21T05:29:59;1.92;;;1.52;;
23328;SDS011;11836;51.050;3.716;2023-03-21T05:32:30;2.75;;;1.45;;
23328;SDS011;11836;51.050;3.716;2023-03-21T05:34:59;3.03;;;1.55;;
23328;SDS011;11836;51.050;3.716;2023-03-21T05:37:29;2.70;;;1.50;;
23328;SDS011;11836;51.050;3.716;2023-03-21T05:39:57;3.65;;;1.85;;
23328;SDS011;11836;51.050;3.716;2023-03-21T05:42:23;2.28;;;1.33;;
23328;SDS011;11836;51.050;3.716;2023-03-21T05:44:57;3.72;;;1.67;;
23328;SDS011;11836;51.050;3.716;2023-03-21T05:47:23;1.60;;;1.27;;
23328;SDS011;11836;51.050;3.716;2023-03-21T05:49:49;4.38;;;1.83;;
23328;SDS011;11836;51.050;3.716;2023-03-21T05:52:18;3.80;;;1.67;;
23328;SDS011;11836;51.050;3.716;2023-03-21T05:54:46;4.03;;;1.80;;
23328;SDS011;11836;51.050;3.716;2023-03-21T05:57:24;2.50;;;1.70;;
23328;SDS011;11836;51.050;3.716;2023-03-21T05:59:52;3.13;;;1.70;;
23328;SDS011;11836;51.050;3.716;2023-03-21T06:02:19;5.57;;;2.05;;
23328;SDS011;11836;51.050;3.716;2023-03-21T06:04:44;2.40;;;1.40;;
23328;SDS011;11836;51.050;3.716;2023-03-21T06:07:13;3.45;;;1.70;;
23328;SDS011;11836;51.050;3.716;2023-03-21T06:09:39;3.00;;;1.77;;
23328;SDS011;11836;51.050;3.716;2023-03-21T06:12:28;4.47;;;2.00;;
23328;SDS011;11836;51.050;3.716;2023-03-21T06:14:57;1.90;;;1.38;;
23328;SDS011;11836;51.050;3.716;2023-03-21T06:17:26;2.25;;;1.67;;
23328;SDS011;11836;51.050;3.716;2023-03-21T06:19:55;1.92;;;1.38;;
23328;SDS011;11836;51.050;3.716;2023-03-21T06:22:31;1.60;;;1.27;;
23328;SDS011;11836;51.050;3.716;2023-03-21T06:24:57;3.65;;;1.70;;
23328;SDS011;11836;51.050;3.716;2023-03-21T06:27:23;3.85;;;1.55;;
23328;SDS011;11836;51.050;3.716;2023-03-21T06:29:55;3.25;;;1.67;;
23328;SDS011;11836;51.050;3.716;2023-03-21T06:32:24;3.88;;;1.90;;
23328;SDS011;11836;51.050;3.716;2023-03-21T06:34:52;3.00;;;1.65;;
23328;SDS011;11836;51.050;3.716;2023-03-21T06:37:21;2.10;;;1.40;;
23328;SDS011;11836;51.050;3.716;2023-03-21T06:39:50;3.42;;;1.98;;
23328;SDS011;11836;51.050;3.716;2023-03-21T06:42:19;1.98;;;1.60;;
23328;SDS011;11836;51.050;3.716;2023-03-21T06:44:45;2.10;;;1.55;;
23328;SDS011;11836;51.050;3.716;2023-03-21T06:47:11;2.45;;;1.55;;
23328;SDS011;11836;51.050;3.716;2023-03-21T06:49:37;2.33;;;1.80;;
23328;SDS011;11836;51.050;3.716;2023-03-21T06:52:13;3.15;;;1.73;;
23328;SDS011;11836;51.050;3.716;2023-03-21T06:54:41;3.08;;;1.85;;
23328;SDS011;11836;51.050;3.716;2023-03-21T06:57:10;2.70;;;1.42;;
23328;SDS011;11836;51.050;3.716;2023-03-21T06:59:37;3.13;;;1.30;;
23328;SDS011;11836;51.050;3.716;2023-03-21T07:02:05;1.90;;;1.30;;
23328;SDS011;11836;51.050;3.716;2023-03-21T07:04:31;2.75;;;1.58;;
23328;SDS011;11836;51.050;3.716;2023-03-21T07:06:57;2.35;;;1.67;;
23328;SDS011;11836;51.050;3.716;2023-03-21T07:09:23;3.47;;;1.55;;
23328;SDS011;11836;51.050;3.716;2023-03-21T07:11:52;2.33;;;1.85;;
23328;SDS011;11836;51.050;3.716;2023-03-21T07:14:18;2.60;;;1.60;;
23328;SDS011;11836;51.050;3.716;2023-03-21T07:16:44;2.10;;;1.40;;
23328;SDS011;11836;51.050;3.716;2023-03-21T07:19:10;2.60;;;1.65;;
23328;SDS011;11836;51.050;3.716;2023-03-21T07:21:35;1.67;;;1.27;;
23328;SDS011;11836;51.050;3.716;2023-03-21T07:24:01;1.63;;;1.30;;
23328;SDS011;11836;51.050;3.716;2023-03-21T07:26:30;1.63;;;1.30;;
23328;SDS011;11836;51.050;3.716;2023-03-21T07:28:56;2.80;;;1.90;;
23328;SDS011;11836;51.050;3.716;2023-03-21T07:31:22;2.50;;;1.42;;
23328;SDS011;11836;51.050;3.716;2023-03-21T07:33:50;2.45;;;1.55;;
23328;SDS011;11836;51.050;3.716;2023-03-21T07:36:17;3.85;;;1.50;;
23328;SDS011;11836;51.050;3.716;2023-03-21T07:38:43;2.67;;;1.55;;
23328;SDS011;11836;51.050;3.716;2023-03-21T07:41:14;1.98;;;1.35;;
23328;SDS011;11836;51.050;3.716;2023-03-21T07:43:46;3.03;;;1.73;;
23328;SDS011;11836;51.050;3.716;2023-03-21T07:46:18;1.88;;;1.40;;
23328;SDS011;11836;51.050;3.716;2023-03-21T07:48:45;2.92;;;1.30;;
23328;SDS011;11836;51.050;3.716;2023-03-21T07:51:13;2.35;;;1.40;;
23328;SDS011;11836;51.050;3.716;2023-03-21T07:53:39;2.58;;;1.10;;
23328;SDS011;11836;51.050;3.716;2023-03-21T07:56:06;3.40;;;1.67;;
23328;SDS011;11836;51.050;3.716;2023-03-21T07:58:35;2.03;;;1.17;;
23328;SDS011;11836;51.050;3.716;2023-03-21T08:01:04;1.17;;;1.08;;
23328;SDS011;11836;51.050;3.716;2023-03-21T08:03:30;1.70;;;1.33;;
23328;SDS011;11836;51.050;3.716;2023-03-21T08:05:58;1.33;;;1.20;;
23328;SDS011;11836;51.050;3.716;2023-03-21T08:08:27;1.67;;;1.30;;
23328;SDS011;11836;51.050;3.716;2023-03-21T08:10:53;2.38;;;1.23;;
23328;SDS011;11836;51.050;3.716;2023-03-21T08:13:24;3.42;;;1.35;;
23328;SDS011;11836;51.050;3.716;2023-03-21T08:15:50;2.63;;;1.33;;
23328;SDS011;11836;51.050;3.716;2023-03-21T08:18:20;3.60;;;1.70;;
23328;SDS011;11836;51.050;3.716;2023-03-21T08:20:55;1.58;;;1.13;;
23328;SDS011;11836;51.050;3.716;2023-03-21T08:23:40;2.47;;;1.50;;
23328;SDS011;11836;51.050;3.716;2023-03-21T08:26:50;2.10;;;1.38;;
23328;SDS011;11836;51.050;3.716;2023-03-21T08:29:16;2.38;;;1.40;;
23328;SDS011;11836;51.050;3.716;2023-03-21T08:31:42;3.65;;;1.60;;
23328;SDS011;11836;51.050;3.716;2023-03-21T08:34:08;4.03;;;1.25;;
23328;SDS011;11836;51.050;3.716;2023-03-21T08:36:36;2.00;;;1.40;;
23328;SDS011;11836;51.050;3.716;2023-03-21T08:39:09;3.17;;;1.50;;
23328;SDS011;11836;51.050;3.716;2023-03-21T08:41:38;3.80;;;1.40;;
23328;SDS011;11836;51.050;3.716;2023-03-21T08:44:06;2.65;;;1.40;;
23328;SDS011;11836;51.050;3.716;2023-03-21T08:46:36;3.13;;;1.60;;
23328;SDS011;11836;51.050;3.716;2023-03-21T08:49:02;2.63;;;1.55;;
23328;SDS011;11836;51.050;3.716;2023-03-21T08:51:30;1.52;;;1.42;;
23328;SDS011;11836;51.050;3.716;2023-03-21T08:54:02;1.85;;;1.20;;
23328;SDS011;11836;51.050;3.716;2023-03-21T08:56:27;2.85;;;1.42;;
23328;SDS011;11836;51.050;3.716;2023-03-21T08:58:54;3.28;;;1.70;;
23328;SDS011;11836;51.050;3.716;2023-03-21T09:01:22;2.33;;;1.48;;
23328;SDS011;11836;51.050;3.716;2023-03-21T09:03:51;2.58;;;1.33;;
23328;SDS011;11836;51.050;3.716;2023-03-21T09:06:18;2.10;;;1.33;;
23328;SDS011;11836;51.050;3.716;2023-03-21T09:09:00;2.13;;;1.13;;
23328;SDS011;11836;51.050;3.716;2023-03-21T09:11:36;2.35;;;1.33;;
23328;SDS011;11836;51.050;3.716;2023-03-21T09:14:42;1.50;;;1.00;;
23328;SDS011;11836;51.050;3.716;2023-03-21T09:17:08;1.52;;;1.27;;
23328;SDS011;11836;51.050;3.716;2023-03-21T09:19:42;2.33;;;1.23;;
23328;SDS011;11836;51.050;3.716;2023-03-21T09:22:20;2.25;;;1.23;;
23328;SDS011;11836;51.050;3.716;2023-03-21T09:24:47;3.75;;;1.67;;
23328;SDS011;11836;51.050;3.716;2023-03-21T09:27:17;3.15;;;1.33;;
23328;SDS011;11836;51.050;3.716;2023-03-21T09:29:47;3.92;;;1.67;;
23328;SDS011;11836;51.050;3.716;2023-03-21T09:32:17;2.30;;;1.40;;
23328;SDS011;11836;51.050;3.716;2023-03-21T09:34:43;2.83;;;1.40;;
23328;SDS011;11836;51.050;3.716;2023-03-21T09:37:28;2.15;;;1.35;;
23328;SDS011;11836;51.050;3.716;2023-03-21T09:39:54;1.75;;;1.38;;
23328;SDS011;11836;51.050;3.716;2023-03-21T09:45:31;3.38;;;1.38;;
23328;SDS011;11836;51.050;3.716;2023-03-21T09:51:20;2.47;;;1.38;;
23328;SDS011;11836;51.050;3.716;2023-03-21T09:54:24;2.85;;;1.25;;
23328;SDS011;11836;51.050;3.716;2023-03-21T09:59:45;2.50;;;1.30;;
23328;SDS011;11836;51.050;3.716;2023-03-21T10:02:28;1.73;;;1.30;;
23328;SDS011;11836;51.050;3.716;2023-03-21T10:08:08;1.88;;;1.40;;
23328;SDS011;11836;51.050;3.716;2023-03-21T10:10:57;2.55;;;1.25;;
23328;SDS011;11836;51.050;3.716;2023-03-21T10:13:34;2.33;;;1.52;;
23328;SDS011;11836;51.050;3.716;2023-03-21T10:16:09;1.58;;;1.27;;
23328;SDS011;11836;51.050;3.716;2023-03-21T10:18:44;1.88;;;1.40;;
23328;SDS011;11836;51.050;3.716;2023-03-21T10:24:00;3.15;;;1.40;;
23328;SDS011;11836;51.050;3.716;2023-03-21T10:26:30;1.98;;;1.25;;
23328;SDS011;11836;51.050;3.716;2023-03-21T10:28:57;3.70;;;1.73;;
23328;SDS011;11836;51.050;3.716;2023-03-21T10:31:26;2.30;;;1.48;;
23328;SDS011;11836;51.050;3.716;2023-03-21T10:34:04;2.95;;;1.38;;
23328;SDS011;11836;51.050;3.716;2023-03-21T10:36:40;2.03;;;1.35;;
23328;SDS011;11836;51.050;3.716;2023-03-21T10:46:12;2.20;;;1.10;;
23328;SDS011;11836;51.050;3.716;2023-03-21T10:51:34;3.80;;;1.58;;
23328;SDS011;11836;51.050;3.716;2023-03-21T10:54:21;1.98;;;1.48;;
23328;SDS011;11836;51.050;3.716;2023-03-21T10:57:09;1.98;;;1.15;;
23328;SDS011;11836;51.050;3.716;2023-03-21T10:59:40;3.28;;;1.42;;
23328;SDS011;11836;51.050;3.716;2023-03-21T11:02:32;1.33;;;1.02;;
23328;SDS011;11836;51.050;3.716;2023-03-21T11:05:11;1.80;;;1.17;;
23328;SDS011;11836;51.050;3.716;2023-03-21T11:07:58;1.52;;;0.90;;
23328;SDS011;11836;51.050;3.716;2023-03-21T11:17:35;1.33;;;0.98;;
23328;SDS011;11836;51.050;3.716;2023-03-21T11:20:29;1.90;;;1.10;;
23328;SDS011;11836;51.050;3.716;2023-03-21T11:22:56;1.77;;;1.08;;
23328;SDS011;11836;51.050;3.716;2023-03-21T11:25:35;1.85;;;1.23;;
23328;SDS011;11836;51.050;3.716;2023-03-21T11:28:11;2.05;;;1.48;;
23328;SDS011;11836;51.050;3.716;2023-03-21T11:30:59;2.53;;;1.40;;
23328;SDS011;11836;51.050;3.716;2023-03-21T11:33:33;2.38;;;1.10;;
23328;SDS011;11836;51.050;3.716;2023-03-21T11:38:42;2.35;;;1.63;;
23328;SDS011;11836;51.050;3.716;2023-03-21T11:41:17;1.92;;;0.93;;
23328;SDS011;11836;51.050;3.716;2023-03-21T11:44:01;2.90;;;1.30;;
23328;SDS011;11836;51.050;3.716;2023-03-21T11:46:28;2.17;;;1.23;;
23328;SDS011;11836;51.050;3.716;2023-03-21T11:48:56;3.15;;;1.67;;
23328;SDS011;11836;51.050;3.716;2023-03-21T11:51:36;1.52;;;1.23;;
23328;SDS011;11836;51.050;3.716;2023-03-21T11:54:24;2.10;;;1.30;;
23328;SDS011;11836;51.050;3.716;2023-03-21T12:00:23;3.05;;;1.13;;
23328;SDS011;11836;51.050;3.716;2023-03-21T12:06:00;2.40;;;1.27;;
23328;SDS011;11836;51.050;3.716;2023-03-21T12:20:08;1.58;;;1.13;;
23328;SDS011;11836;51.050;3.716;2023-03-21T12:26:11;1.77;;;0.95;;
23328;SDS011;11836;51.050;3.716;2023-03-21T12:34:43;3.42;;;1.40;;
23328;SDS011;11836;51.050;3.716;2023-03-21T12:40:30;1.52;;;1.17;;
23328;SDS011;11836;51.050;3.716;2023-03-21T12:45:59;1.67;;;1.08;;
23328;SDS011;11836;51.050;3.716;2023-03-21T12:51:03;2.00;;;1.00;;
23328;SDS011;11836;51.050;3.716;2023-03-21T12:56:29;2.38;;;1.17;;
23328;SDS011;11836;51.050;3.716;2023-03-21T12:59:17;2.13;;;1.08;;
23328;SDS011;11836;51.050;3.716;2023-03-21T13:08:00;1.50;;;1.40;;
23328;SDS011;11836;51.050;3.716;2023-03-21T13:10:35;1.73;;;1.10;;
23328;SDS011;11836;51.050;3.716;2023-03-21T13:16:05;2.03;;;1.23;;
23328;SDS011;11836;51.050;3.716;2023-03-21T13:27:05;1.92;;;0.90;;
23328;SDS011;11836;51.050;3.716;2023-03-21T13:29:49;1.58;;;1.05;;
23328;SDS011;11836;51.050;3.716;2023-03-21T13:32:27;1.40;;;0.77;;
23328;SDS011;11836;51.050;3.716;2023-03-21T13:37:32;1.40;;;0.90;;
23328;SDS011;11836;51.050;3.716;2023-03-21T13:40:18;1.65;;;0.88;;
23328;SDS011;11836;51.050;3.716;2023-03-21T13:45:52;1.77;;;1.30;;
23328;SDS011;11836;51.050;3.716;2023-03-21T13:48:26;1.20;;;1.10;;
23328;SDS011;11836;51.050;3.716;2023-03-21T13:50:59;2.25;;;1.10;;
23328;SDS011;11836;51.050;3.716;2023-03-21T13:53:37;1.38;;;0.90;;
23328;SDS011;11836;51.050;3.716;2023-03-21T14:01:21;1.15;;;0.90;;
23328;SDS011;11836;51.050;3.716;2023-03-21T14:04:08;1.42;;;0.95;;
23328;SDS011;11836;51.050;3.716;2023-03-21T14:06:47;1.90;;;1.20;;
23328;SDS011;11836;51.050;3.716;2023-03-21T14:09:16;2.80;;;1.00;;
23328;SDS011;11836;51.050;3.716;2023-03-21T14:11:51;1.38;;;1.00;;
23328;SDS011;11836;51.050;3.716;2023-03-21T14:14:36;1.50;;;1.00;;
23328;SDS011;11836;51.050;3.716;2023-03-21T14:20:10;1.48;;;1.10;;
23328;SDS011;11836;51.050;3.716;2023-03-21T14:22:39;1.50;;;1.02;;
23328;SDS011;11836;51.050;3.716;2023-03-21T14:25:11;2.15;;;1.20;;
23328;SDS011;11836;51.050;3.716;2023-03-21T14:27:49;2.58;;;1.00;;
23328;SDS011;11836;51.050;3.716;2023-03-21T14:30:29;1.70;;;1.20;;
23328;SDS011;11836;51.050;3.716;2023-03-21T14:32:59;1.80;;;0.77;;
23328;SDS011;11836;51.050;3.716;2023-03-21T14:35:36;0.93;;;0.82;;
23328;SDS011;11836;51.050;3.716;2023-03-21T14:38:18;1.33;;;0.93;;
23328;SDS011;11836;51.050;3.716;2023-03-21T14:40:56;1.48;;;0.90;;
23328;SDS011;11836;51.050;3.716;2023-03-21T14:43:23;1.20;;;0.75;;
23328;SDS011;11836;51.050;3.716;2023-03-21T14:45:54;1.42;;;0.90;;
23328;SDS011;11836;51.050;3.716;2023-03-21T14:48:31;1.98;;;1.10;;
23328;SDS011;11836;51.050;3.716;2023-03-21T14:51:02;1.63;;;0.98;;
23328;SDS011;11836;51.050;3.716;2023-03-21T14:53:34;2.15;;;1.00;;
23328;SDS011;11836;51.050;3.716;2023-03-21T14:56:18;1.35;;;0.95;;
23328;SDS011;11836;51.050;3.716;2023-03-21T14:58:47;1.92;;;0.90;;
23328;SDS011;11836;51.050;3.716;2023-03-21T15:01:26;1.55;;;1.05;;
23328;SDS011;11836;51.050;3.716;2023-03-21T15:04:09;0.80;;;0.63;;
23328;SDS011;11836;51.050;3.716;2023-03-21T15:06:59;1.25;;;1.15;;
23328;SDS011;11836;51.050;3.716;2023-03-21T15:09:55;1.67;;;0.90;;
23328;SDS011;11836;51.050;3.716;2023-03-21T15:12:55;1.52;;;1.08;;
23328;SDS011;11836;51.050;3.716;2023-03-21T15:15:24;1.00;;;0.80;;
23328;SDS011;11836;51.050;3.716;2023-03-21T15:17:52;1.52;;;1.15;;
23328;SDS011;11836;51.050;3.716;2023-03-21T15:20:38;0.98;;;0.70;;
23328;SDS011;11836;51.050;3.716;2023-03-21T15:23:06;1.52;;;0.90;;
23328;SDS011;11836;51.050;3.716;2023-03-21T15:25:37;0.90;;;0.70;;
23328;SDS011;11836;51.050;3.716;2023-03-21T15:28:06;2.42;;;1.25;;
23328;SDS011;11836;51.050;3.716;2023-03-21T15:30:45;0.93;;;0.80;;
23328;SDS011;11836;51.050;3.716;2023-03-21T15:33:26;1.58;;;0.93;;
23328;SDS011;11836;51.050;3.716;2023-03-21T15:39:00;1.15;;;0.95;;
23328;SDS011;11836;51.050;3.716;2023-03-21T15:44:47;0.80;;;0.77;;
23328;SDS011;11836;51.050;3.716;2023-03-21T15:47:34;2.28;;;0.85;;
23328;SDS011;11836;51.050;3.716;2023-03-21T15:50:27;1.05;;;0.80;;
23328;SDS011;11836;51.050;3.716;2023-03-21T15:53:14;1.90;;;1.17;;
23328;SDS011;11836;51.050;3.716;2023-03-21T16:01:30;2.03;;;0.95;;
23328;SDS011;11836;51.050;3.716;2023-03-21T16:04:11;2.17;;;0.80;;
23328;SDS011;11836;51.050;3.716;2023-03-21T16:07:10;3.15;;;1.02;;
23328;SDS011;11836;51.050;3.716;2023-03-21T16:13:55;3.05;;;0.98;;
23328;SDS011;11836;51.050;3.716;2023-03-21T16:16:25;1.48;;;0.63;;
23328;SDS011;11836;51.050;3.716;2023-03-21T16:18:52;2.22;;;0.82;;
23328;SDS011;11836;51.050;3.716;2023-03-21T16:21:20;1.45;;;0.60;;
23328;SDS011;11836;51.050;3.716;2023-03-21T16:24:07;0.98;;;0.60;;
23328;SDS011;11836;51.050;3.716;2023-03-21T16:27:04;2.03;;;0.80;;
23328;SDS011;11836;51.050;3.716;2023-03-21T16:29:51;2.90;;;0.90;;
23328;SDS011;11836;51.050;3.716;2023-03-21T16:32:26;1.63;;;0.70;;
23328;SDS011;11836;51.050;3.716;2023-03-21T16:35:00;0.98;;;0.68;;
23328;SDS011;11836;51.050;3.716;2023-03-21T16:37:26;0.95;;;0.85;;
23328;SDS011;11836;51.050;3.716;2023-03-21T16:39:56;0.65;;;0.50;;
23328;SDS011;11836;51.050;3.716;2023-03-21T16:44:51;0.98;;;0.60;;
23328;SDS011;11836;51.050;3.716;2023-03-21T16:47:19;1.10;;;0.80;;
23328;SDS011;11836;51.050;3.716;2023-03-21T16:49:54;1.92;;;1.05;;
23328;SDS011;11836;51.050;3.716;2023-03-21T16:52:30;1.55;;;0.77;;
23328;SDS011;11836;51.050;3.716;2023-03-21T16:54:56;0.98;;;0.77;;
23328;SDS011;11836;51.050;3.716;2023-03-21T16:57:25;1.00;;;0.90;;
23328;SDS011;11836;51.050;3.716;2023-03-21T17:00:04;1.65;;;0.70;;
23328;SDS011;11836;51.050;3.716;2023-03-21T17:02:51;2.80;;;0.90;;
23328;SDS011;11836;51.050;3.716;2023-03-21T17:05:25;3.58;;;0.80;;
23328;SDS011;11836;51.050;3.716;2023-03-21T17:07:55;1.15;;;0.93;;
23328;SDS011;11836;51.050;3.716;2023-03-21T17:10:35;1.23;;;0.77;;
23328;SDS011;11836;51.050;3.716;2023-03-21T17:13:04;2.03;;;0.70;;
23328;SDS011;11836;51.050;3.716;2023-03-21T17:15:33;1.20;;;1.10;;
23328;SDS011;11836;51.050;3.716;2023-03-21T17:17:59;18.83;;;3.13;;
23328;SDS011;11836;51.050;3.716;2023-03-21T17:20:32;4.95;;;2.95;;
23328;SDS011;11836;51.050;3.716;2023-03-21T17:23:08;8.73;;;2.30;;
23328;SDS011;11836;51.050;3.716;2023-03-21T17:25:34;5.70;;;1.38;;
23328;SDS011;11836;51.050;3.716;2023-03-21T17:28:03;44.72;;;10.77;;
23328;SDS011;11836;51.050;3.716;2023-03-21T17:30:32;39.35;;;20.70;;
23328;SDS011;11836;51.050;3.716;2023-03-21T17:32:59;36.90;;;13.77;;
23328;SDS011;11836;51.050;3.716;2023-03-21T17:35:25;39.05;;;15.30;;
23328;SDS011;11836;51.050;3.716;2023-03-21T17:37:55;25.75;;;11.05;;
23328;SDS011;11836;51.050;3.716;2023-03-21T17:40:29;15.20;;;6.65;;
23328;SDS011;11836;51.050;3.716;2023-03-21T17:42:57;10.35;;;5.22;;
23328;SDS011;11836;51.050;3.716;2023-03-21T17:45:49;13.38;;;4.80;;
23328;SDS011;11836;51.050;3.716;2023-03-21T17:48:15;8.90;;;4.18;;
23328;SDS011;11836;51.050;3.716;2023-03-21T17:53:25;12.02;;;4.32;;
23328;SDS011;11836;51.050;3.716;2023-03-21T17:55:51;10.68;;;3.63;;
23328;SDS011;11836;51.050;3.716;2023-03-21T17:58:20;8.60;;;3.30;;
23328;SDS011;11836;51.050;3.716;2023-03-21T18:00:46;7.47;;;3.35;;
23328;SDS011;11836;51.050;3.716;2023-03-21T18:03:20;6.80;;;3.28;;
23328;SDS011;11836;51.050;3.716;2023-03-21T18:05:46;8.73;;;3.28;;
23328;SDS011;11836;51.050;3.716;2023-03-21T18:08:12;7.13;;;2.85;;
23328;SDS011;11836;51.050;3.716;2023-03-21T18:10:39;10.45;;;2.75;;
23328;SDS011;11836;51.050;3.716;2023-03-21T18:13:10;6.45;;;2.40;;
23328;SDS011;11836;51.050;3.716;2023-03-21T18:15:38;7.45;;;2.67;;
23328;SDS011;11836;51.050;3.716;2023-03-21T18:18:10;5.20;;;2.40;;
23328;SDS011;11836;51.050;3.716;2023-03-21T18:23:18;3.80;;;2.10;;
23328;SDS011;11836;51.050;3.716;2023-03-21T18:25:47;4.63;;;2.00;;
23328;SDS011;11836;51.050;3.716;2023-03-21T18:31:08;4.88;;;1.90;;